Time;durP1;ratioP1;P1;durP2;ratioP2;P2;SDS_P1;SDS_P2;PMS_P1;PMS_P2;Temp;Humidity;BMP_temperature;BMP_pressure;BME280_temperature;BME280_humidity;BME280_pressure;Samples;Min_cycle;Max_cycle;Signal;HPM_P1;HPM_P2
2023/10/25 00:05:00;;;;;;;;;;;17.00;59.80;;;;;;10241735;28;92969;-53
2023/10/25 00:10:02;;;;;;;;;;;16.90;60.00;;;;;;10237863;28;95030;-52
2023/10/25 00:15:04;;;;;;;;;;;17.00;60.10;;;;;;10243171;28;96261;-53
2023/10/25 00:20:07;;;;;;;;;;;16.90;59.80;;;;;;10244630;28;93666;-48
2023/10/25 00:25:08;;;;;;;;;;;16.90;59.50;;;;;;10241928;28;93105;-49
2023/10/25 00:30:11;;;;;;;;;;;16.90;59.20;;;;;;10240683;28;93331;-48
2023/10/25 00:35:12;;;;;;;;;;;16.90;59.00;;;;;;10239299;28;93943;-50
2023/10/25 00:40:14;;;;;;;;;;;16.90;58.70;;;;;;10215146;28;93679;-47
2023/10/25 00:45:16;;;;;;;;;;;16.90;58.40;;;;;;10218344;28;93188;-47
2023/10/25 00:50:18;;;;;;;;;;;16.90;58.50;;;;;;10231713;28;94037;-50
2023/10/25 00:55:20;;;;;;;;;;;16.90;58.80;;;;;;10215785;28;95935;-52
2023/10/25 01:05:49;;;;;;;;;;;16.90;59.60;;;;;;10496134;23;96543;-50
2023/10/25 01:10:52;;;;;;;;;;;16.90;59.50;;;;;;10227300;28;96146;-48
2023/10/25 01:15:54;;;;;;;;;;;16.80;59.00;;;;;;10229924;28;93821;-46
2023/10/25 01:20:55;;;;;;;;;;;16.90;58.90;;;;;;10222465;28;94192;-48
2023/10/25 01:25:57;;;;;;;;;;;16.80;58.60;;;;;;10229892;28;95422;-48
2023/10/25 01:30:59;;;;;;;;;;;16.80;58.40;;;;;;10231222;28;95788;-46
2023/10/25 01:36:01;;;;;;;;;;;16.80;58.20;;;;;;10230512;28;94965;-47
2023/10/25 01:41:03;;;;;;;;;;;16.90;58.20;;;;;;10228333;28;93687;-45
2023/10/25 01:46:05;;;;;;;;;;;16.90;58.00;;;;;;10206234;28;93987;-45
2023/10/25 01:51:07;;;;;;;;;;;16.80;58.50;;;;;;10224434;28;95696;-51
2023/10/25 01:56:08;;;;;;;;;;;16.80;59.10;;;;;;10222898;28;95491;-47
2023/10/25 02:01:10;;;;;;;;;;;16.80;59.20;;;;;;10238692;28;93201;-46
2023/10/25 02:06:13;;;;;;;;;;;16.80;58.90;;;;;;10238007;28;94986;-47
2023/10/25 02:11:20;;;;;;;;;;;16.80;59.00;;;;;;10227642;28;93120;-48
2023/10/25 02:16:23;;;;;;;;;;;16.80;58.50;;;;;;10230989;28;93841;-47
2023/10/25 02:21:25;;;;;;;;;;;16.80;58.30;;;;;;10232698;28;93903;-49
2023/10/25 02:26:27;;;;;;;;;;;16.80;58.20;;;;;;10231578;28;92743;-51
2023/10/25 02:31:29;;;;;;;;;;;16.80;58.00;;;;;;10206828;28;93984;-47
2023/10/25 02:36:31;;;;;;;;;;;16.70;57.80;;;;;;10228161;28;92963;-48
2023/10/25 02:41:32;;;;;;;;;;;16.80;58.10;;;;;;10234504;28;95296;-48
2023/10/25 02:46:34;;;;;;;;;;;16.70;58.40;;;;;;10221198;28;95655;-47
2023/10/25 02:51:38;;;;;;;;;;;16.70;58.80;;;;;;10203476;28;93521;-49
2023/10/25 02:56:40;;;;;;;;;;;16.70;59.00;;;;;;10232747;28;93963;-48
2023/10/25 03:01:43;;;;;;;;;;;16.70;58.70;;;;;;10216425;28;94281;-48
2023/10/25 03:06:44;;;;;;;;;;;16.70;58.40;;;;;;10243010;28;94269;-49
2023/10/25 03:11:46;;;;;;;;;;;16.70;58.40;;;;;;10218207;28;93526;-46
2023/10/25 03:16:49;;;;;;;;;;;16.70;58.00;;;;;;10201549;28;93723;-47
2023/10/25 03:21:51;;;;;;;;;;;16.70;58.00;;;;;;10219540;28;95636;-47
2023/10/25 03:26:53;;;;;;;;;;;16.70;57.70;;;;;;10218760;28;93091;-46
2023/10/25 03:31:58;;;;;;;;;;;16.70;57.70;;;;;;10218704;28;95502;-46
2023/10/25 03:37:00;;;;;;;;;;;16.70;57.90;;;;;;10220692;28;95180;-44
2023/10/25 03:42:03;;;;;;;;;;;16.70;58.30;;;;;;10233878;28;94560;-52
2023/10/25 03:47:05;;;;;;;;;;;16.70;58.70;;;;;;10241955;28;93220;-48
2023/10/25 03:52:07;;;;;;;;;;;16.70;58.80;;;;;;10245190;28;94071;-46
2023/10/25 03:57:09;;;;;;;;;;;16.70;58.50;;;;;;10233672;28;92955;-48
2023/10/25 04:02:10;;;;;;;;;;;16.70;58.50;;;;;;10219245;28;93299;-46
2023/10/25 04:07:12;;;;;;;;;;;16.70;58.00;;;;;;10237201;28;92282;-51
2023/10/25 04:12:14;;;;;;;;;;;16.70;57.80;;;;;;10241801;28;93203;-51
2023/10/25 04:17:16;;;;;;;;;;;16.70;57.60;;;;;;10240384;28;93612;-47
2023/10/25 04:22:19;;;;;;;;;;;16.70;57.40;;;;;;10240030;28;95423;-47
2023/10/25 04:27:21;;;;;;;;;;;16.80;57.30;;;;;;10240064;28;95345;-46
2023/10/25 04:32:23;;;;;;;;;;;16.80;57.50;;;;;;10240692;28;93781;-51
2023/10/25 04:37:25;;;;;;;;;;;16.70;57.80;;;;;;10240427;28;92988;-46
2023/10/25 04:42:26;;;;;;;;;;;16.70;58.30;;;;;;10243441;28;93252;-51
2023/10/25 04:47:28;;;;;;;;;;;16.70;58.40;;;;;;10235774;28;95072;-47
2023/10/25 04:52:30;;;;;;;;;;;16.70;58.20;;;;;;10241268;28;94009;-46
2023/10/25 04:57:35;;;;;;;;;;;16.70;58.10;;;;;;10222114;28;92790;-46
2023/10/25 05:02:38;;;;;;;;;;;16.70;57.90;;;;;;10223439;28;93257;-47
2023/10/25 05:07:40;;;;;;;;;;;16.80;57.80;;;;;;10254530;28;93614;-47
2023/10/25 05:12:43;;;;;;;;;;;16.80;57.50;;;;;;10248858;28;95474;-47
2023/10/25 05:17:46;;;;;;;;;;;16.80;57.40;;;;;;10245841;28;96698;-46
2023/10/25 05:22:49;;;;;;;;;;;16.80;57.30;;;;;;10206305;28;93918;-47
2023/10/25 05:27:51;;;;;;;;;;;16.80;57.40;;;;;;10240668;28;94914;-45
2023/10/25 05:32:57;;;;;;;;;;;16.70;57.80;;;;;;10207227;28;93555;-47
2023/10/25 05:38:00;;;;;;;;;;;16.70;58.20;;;;;;10211955;28;93358;-49
2023/10/25 05:43:02;;;;;;;;;;;16.70;58.20;;;;;;10229719;28;92998;-46
2023/10/25 05:48:04;;;;;;;;;;;16.70;57.80;;;;;;10231047;28;94069;-51
2023/10/25 05:53:06;;;;;;;;;;;16.70;57.60;;;;;;10231948;28;94725;-50
2023/10/25 05:58:08;;;;;;;;;;;16.70;57.40;;;;;;10229353;28;93371;-48
2023/10/25 06:03:09;;;;;;;;;;;16.70;57.30;;;;;;10225801;28;96225;-48
2023/10/25 06:08:31;;;;;;;;;;;16.70;57.10;;;;;;10214485;28;96249;-47
2023/10/25 06:13:33;;;;;;;;;;;16.70;56.90;;;;;;10228643;28;93111;-54
2023/10/25 06:18:35;;;;;;;;;;;16.70;56.90;;;;;;10230845;28;94457;-50
2023/10/25 06:23:37;;;;;;;;;;;16.70;57.30;;;;;;10235427;28;93111;-46
2023/10/25 06:28:39;;;;;;;;;;;16.60;57.50;;;;;;10226917;28;95507;-48
2023/10/25 06:33:41;;;;;;;;;;;16.60;57.90;;;;;;10225446;28;93717;-51
2023/10/25 06:38:43;;;;;;;;;;;16.60;57.90;;;;;;10229982;28;92884;-50
2023/10/25 06:43:45;;;;;;;;;;;16.60;57.50;;;;;;10228126;28;96055;-48
2023/10/25 06:48:47;;;;;;;;;;;16.60;57.30;;;;;;10210390;28;96225;-47
2023/10/25 06:53:49;;;;;;;;;;;16.60;57.10;;;;;;10212065;28;96869;-50
2023/10/25 06:58:52;;;;;;;;;;;16.60;57.10;;;;;;10225955;28;95153;-47
2023/10/25 07:03:58;;;;;;;;;;;16.60;56.80;;;;;;10227925;28;94176;-48
2023/10/25 07:09:00;;;;;;;;;;;16.60;56.70;;;;;;10224544;28;95327;-52
2023/10/25 07:14:02;;;;;;;;;;;16.60;56.70;;;;;;10236709;28;93636;-50
2023/10/25 07:19:04;;;;;;;;;;;16.60;57.10;;;;;;10238890;28;94354;-50
2023/10/25 07:24:06;;;;;;;;;;;16.60;58.60;;;;;;10233461;28;93136;-50
2023/10/25 07:29:08;;;;;;;;;;;16.50;59.10;;;;;;10217184;28;95505;-51
2023/10/25 07:34:09;;;;;;;;;;;16.60;59.40;;;;;;10233853;28;93061;-47
2023/10/25 07:39:15;;;;;;;;;;;16.70;59.10;;;;;;10229641;28;94994;-47
2023/10/25 07:44:16;;;;;;;;;;;16.80;58.80;;;;;;10236545;28;96987;-50
2023/10/25 07:49:18;;;;;;;;;;;17.00;58.50;;;;;;10243489;28;96070;-47
2023/10/25 07:54:20;;;;;;;;;;;17.20;58.20;;;;;;10244783;28;94392;-66
2023/10/25 07:59:22;;;;;;;;;;;17.30;58.10;;;;;;10242847;28;93317;-49
2023/10/25 08:04:24;;;;;;;;;;;17.40;58.00;;;;;;10236112;28;93826;-46
2023/10/25 08:09:26;;;;;;;;;;;17.50;57.80;;;;;;10242379;28;93253;-52
2023/10/25 08:14:28;;;;;;;;;;;17.50;57.70;;;;;;10232096;28;93595;-51
2023/10/25 08:19:30;;;;;;;;;;;17.50;57.60;;;;;;10235062;28;92949;-44
2023/10/25 08:24:33;;;;;;;;;;;17.50;57.90;;;;;;10222815;28;93087;-44
2023/10/25 08:29:35;;;;;;;;;;;17.50;58.30;;;;;;10230959;28;93501;-53
2023/10/25 08:34:36;;;;;;;;;;;17.50;58.80;;;;;;10233102;28;95539;-54
2023/10/25 08:39:38;;;;;;;;;;;17.50;59.20;;;;;;10219418;28;95290;-54
2023/10/25 08:44:43;;;;;;;;;;;17.60;59.40;;;;;;10228773;28;94178;-52
2023/10/25 08:49:45;;;;;;;;;;;17.60;59.40;;;;;;10232733;28;93220;-50
2023/10/25 08:54:47;;;;;;;;;;;17.70;59.30;;;;;;10228924;28;95013;-55
2023/10/25 08:59:51;;;;;;;;;;;17.70;59.40;;;;;;10216583;28;93061;-50
2023/10/25 09:04:58;;;;;;;;;;;17.70;59.10;;;;;;10229422;28;93596;-53
2023/10/25 09:10:00;;;;;;;;;;;17.70;58.90;;;;;;10235469;28;92430;-49
2023/10/25 09:15:03;;;;;;;;;;;17.70;58.70;;;;;;10241987;28;93174;-56
2023/10/25 09:20:08;;;;;;;;;;;17.70;58.40;;;;;;10230776;28;92929;-51
2023/10/25 09:25:10;;;;;;;;;;;17.80;58.20;;;;;;10215754;28;97117;-55
2023/10/25 09:30:14;;;;;;;;;;;17.70;58.00;;;;;;10223638;28;98022;-54
2023/10/25 09:35:18;;;;;;;;;;;17.70;57.90;;;;;;10235862;28;92967;-49
2023/10/25 09:40:20;;;;;;;;;;;17.70;57.80;;;;;;10241263;28;93575;-58
2023/10/25 09:45:28;;;;;;;;;;;17.70;57.60;;;;;;10230432;28;93143;-59
2023/10/25 09:50:36;;;;;;;;;;;17.70;57.60;;;;;;10195314;28;94411;-56
2023/10/25 09:55:43;;;;;;;;;;;17.70;57.40;;;;;;10218447;28;93014;-47
2023/10/25 10:00:45;;;;;;;;;;;17.70;57.40;;;;;;10208079;28;93371;-47
2023/10/25 10:06:00;;;;;;;;;;;17.70;57.20;;;;;;10211996;28;93989;-48
2023/10/25 10:11:04;;;;;;;;;;;17.70;57.20;;;;;;10225983;28;102763;-48
2023/10/25 10:16:09;;;;;;;;;;;17.70;57.10;;;;;;10221960;28;95652;-47
2023/10/25 10:21:13;;;;;;;;;;;17.70;57.20;;;;;;10238277;28;96210;-53
2023/10/25 10:26:34;;;;;;;;;;;17.70;57.10;;;;;;10219807;28;94510;-51
2023/10/25 10:31:55;;;;;;;;;;;17.70;56.90;;;;;;10228554;28;93028;-50
2023/10/25 10:37:10;;;;;;;;;;;17.80;56.80;;;;;;10209978;28;95082;-50
2023/10/25 10:42:17;;;;;;;;;;;17.70;56.70;;;;;;10226386;28;93848;-51
2023/10/25 10:47:21;;;;;;;;;;;17.70;56.60;;;;;;10236393;28;93778;-51
2023/10/25 10:52:24;;;;;;;;;;;17.70;56.60;;;;;;10235341;28;92746;-49
2023/10/25 10:57:26;;;;;;;;;;;17.70;56.50;;;;;;10235160;28;93156;-52
2023/10/25 11:02:27;;;;;;;;;;;17.70;56.40;;;;;;10231732;28;94095;-51
2023/10/25 11:07:29;;;;;;;;;;;17.70;56.40;;;;;;10213398;28;95530;-53
2023/10/25 11:12:31;;;;;;;;;;;17.70;56.40;;;;;;10214568;28;96198;-53
2023/10/25 11:17:34;;;;;;;;;;;17.70;56.30;;;;;;10233392;28;93374;-50
2023/10/25 11:22:36;;;;;;;;;;;17.70;56.30;;;;;;10241576;28;94156;-54
2023/10/25 11:27:40;;;;;;;;;;;17.70;56.30;;;;;;10236632;28;93438;-53
2023/10/25 11:32:42;;;;;;;;;;;17.70;56.20;;;;;;10232021;28;92631;-47
2023/10/25 11:37:45;;;;;;;;;;;17.70;56.20;;;;;;10227929;28;93275;-45
2023/10/25 11:42:48;;;;;;;;;;;17.70;56.10;;;;;;10228240;28;93881;-46
2023/10/25 11:47:54;;;;;;;;;;;17.70;56.10;;;;;;10222770;28;93002;-48
2023/10/25 11:52:58;;;;;;;;;;;17.70;56.00;;;;;;10239503;28;93442;-45
2023/10/25 11:58:01;;;;;;;;;;;17.70;56.10;;;;;;10241710;28;97284;-47
2023/10/25 12:03:03;;;;;;;;;;;17.60;55.80;;;;;;10225666;28;95165;-48
2023/10/25 12:08:05;;;;;;;;;;;17.70;55.90;;;;;;10240491;28;93997;-46
2023/10/25 12:13:07;;;;;;;;;;;17.70;55.90;;;;;;10240765;28;93794;-45
2023/10/25 12:18:09;;;;;;;;;;;17.70;55.90;;;;;;10235909;28;93096;-49
2023/10/25 12:23:11;;;;;;;;;;;17.70;55.90;;;;;;10217743;28;92945;-50
2023/10/25 12:28:13;;;;;;;;;;;17.70;55.90;;;;;;10239032;28;93105;-50
2023/10/25 12:33:15;;;;;;;;;;;17.70;55.90;;;;;;10228567;28;92792;-47
2023/10/25 12:38:17;;;;;;;;;;;17.70;55.90;;;;;;10229688;28;93373;-51
2023/10/25 12:43:19;;;;;;;;;;;17.70;55.90;;;;;;10243120;28;93893;-50
2023/10/25 12:48:20;;;;;;;;;;;17.70;55.90;;;;;;10236953;28;94936;-48
2023/10/25 12:53:23;;;;;;;;;;;17.80;55.80;;;;;;10234068;28;95175;-54
2023/10/25 12:58:25;;;;;;;;;;;17.80;55.70;;;;;;10244475;28;94100;-54
2023/10/25 13:03:26;;;;;;;;;;;17.80;55.60;;;;;;10250191;28;93769;-50
2023/10/25 13:08:29;;;;;;;;;;;17.80;55.50;;;;;;10241875;28;94577;-47
2023/10/25 13:13:31;;;;;;;;;;;17.80;55.50;;;;;;10215152;28;93026;-49
2023/10/25 13:18:32;;;;;;;;;;;17.80;55.40;;;;;;10239941;28;93009;-51
2023/10/25 13:23:34;;;;;;;;;;;17.80;55.40;;;;;;10240758;28;94726;-46
2023/10/25 13:28:36;;;;;;;;;;;17.80;55.30;;;;;;10228939;28;94215;-44
2023/10/25 13:33:38;;;;;;;;;;;17.80;55.30;;;;;;10228401;28;92834;-54
2023/10/25 13:38:40;;;;;;;;;;;17.80;55.30;;;;;;10228026;28;95551;-48
2023/10/25 13:43:42;;;;;;;;;;;17.80;55.20;;;;;;10247749;28;94997;-47
2023/10/25 13:48:44;;;;;;;;;;;17.80;55.20;;;;;;10226009;28;94803;-49
2023/10/25 13:53:46;;;;;;;;;;;17.80;55.20;;;;;;10225923;28;93906;-44
2023/10/25 13:58:48;;;;;;;;;;;17.80;55.20;;;;;;10231981;28;94065;-50
2023/10/25 14:03:49;;;;;;;;;;;17.80;55.20;;;;;;10225141;28;93518;-50
2023/10/25 14:08:51;;;;;;;;;;;17.80;55.10;;;;;;10230792;28;93901;-56
2023/10/25 14:13:54;;;;;;;;;;;17.80;55.00;;;;;;10225553;28;93552;-48
2023/10/25 14:18:56;;;;;;;;;;;17.80;55.10;;;;;;10208254;28;93299;-51
2023/10/25 14:23:57;;;;;;;;;;;17.80;56.00;;;;;;10250658;28;93692;-48
2023/10/25 14:29:00;;;;;;;;;;;17.80;55.10;;;;;;10224087;28;95015;-48
2023/10/25 14:34:02;;;;;;;;;;;17.80;55.00;;;;;;10218585;28;95685;-51
2023/10/25 14:39:03;;;;;;;;;;;17.80;55.00;;;;;;10237310;28;94447;-45
2023/10/25 14:44:06;;;;;;;;;;;17.80;54.90;;;;;;10237465;28;93425;-47
2023/10/25 14:49:07;;;;;;;;;;;17.70;54.90;;;;;;10216628;28;93944;-45
2023/10/25 14:54:13;;;;;;;;;;;17.70;54.90;;;;;;10228811;28;93080;-47
2023/10/25 14:59:15;;;;;;;;;;;17.80;54.90;;;;;;10245441;28;93846;-45
2023/10/25 15:04:17;;;;;;;;;;;17.70;54.80;;;;;;10243327;28;93762;-45
2023/10/25 15:09:19;;;;;;;;;;;17.70;54.80;;;;;;10245770;28;93180;-46
2023/10/25 15:14:21;;;;;;;;;;;17.70;54.80;;;;;;10224964;28;93937;-49
2023/10/25 15:19:23;;;;;;;;;;;17.70;54.90;;;;;;10228539;28;95503;-49
2023/10/25 15:24:25;;;;;;;;;;;17.70;54.80;;;;;;10243349;28;95108;-52
2023/10/25 15:29:27;;;;;;;;;;;17.70;54.80;;;;;;10221216;28;93862;-49
2023/10/25 15:34:29;;;;;;;;;;;17.70;54.70;;;;;;10234990;28;93814;-43
2023/10/25 15:39:31;;;;;;;;;;;17.70;55.00;;;;;;10234522;28;93811;-46
2023/10/25 15:44:33;;;;;;;;;;;17.70;56.50;;;;;;10233256;28;93084;-48
2023/10/25 15:49:35;;;;;;;;;;;17.80;56.50;;;;;;10233672;28;95169;-45
2023/10/25 15:54:36;;;;;;;;;;;17.90;56.50;;;;;;10236480;28;94527;-42
2023/10/25 15:59:38;;;;;;;;;;;18.00;57.10;;;;;;10243029;28;94645;-46
2023/10/25 16:04:40;;;;;;;;;;;18.20;60.20;;;;;;10232682;28;94726;-44
2023/10/25 16:09:44;;;;;;;;;;;18.30;60.50;;;;;;10241708;28;97140;-50
2023/10/25 16:14:45;;;;;;;;;;;18.40;63.30;;;;;;10240493;28;96431;-47
2023/10/25 16:19:47;;;;;;;;;;;18.50;65.00;;;;;;10245606;28;93616;-52
2023/10/25 16:24:49;;;;;;;;;;;18.60;65.50;;;;;;10230150;28;93792;-46
2023/10/25 16:29:51;;;;;;;;;;;18.60;63.60;;;;;;10242489;28;94251;-49
2023/10/25 16:34:53;;;;;;;;;;;18.60;63.20;;;;;;10235643;28;93004;-46
2023/10/25 16:39:56;;;;;;;;;;;18.70;63.00;;;;;;10239313;28;93911;-45
2023/10/25 16:44:57;;;;;;;;;;;18.70;62.20;;;;;;10241609;28;94074;-48
2023/10/25 16:49:59;;;;;;;;;;;18.80;62.00;;;;;;10243478;28;93476;-48
2023/10/25 16:55:01;;;;;;;;;;;18.90;61.90;;;;;;10231640;28;92990;-49
2023/10/25 17:00:07;;;;;;;;;;;18.90;62.20;;;;;;10206839;28;96400;-46
2023/10/25 17:05:09;;;;;;;;;;;18.90;61.60;;;;;;10228270;28;96369;-49
2023/10/25 17:10:11;;;;;;;;;;;18.90;61.50;;;;;;10223536;28;93936;-47
2023/10/25 17:15:13;;;;;;;;;;;18.90;61.50;;;;;;10245289;28;92879;-55
2023/10/25 17:20:16;;;;;;;;;;;18.90;61.80;;;;;;10235690;28;92568;-43
2023/10/25 17:25:18;;;;;;;;;;;19.00;63.20;;;;;;10207809;28;94336;-43
2023/10/25 17:30:21;;;;;;;;;;;19.10;62.70;;;;;;10219343;28;94740;-44
2023/10/25 17:35:23;;;;;;;;;;;19.20;62.20;;;;;;10216908;28;93981;-46
2023/10/25 17:40:25;;;;;;;;;;;19.20;62.10;;;;;;10236990;28;92901;-44
2023/10/25 17:45:27;;;;;;;;;;;19.30;62.10;;;;;;10233251;28;94070;-44
2023/10/25 17:50:32;;;;;;;;;;;19.20;62.20;;;;;;10221839;28;95100;-45
2023/10/25 17:55:39;;;;;;;;;;;19.20;62.30;;;;;;10217155;28;96192;-43
2023/10/25 18:00:42;;;;;;;;;;;19.10;62.60;;;;;;10210031;28;93793;-44
2023/10/25 18:05:44;;;;;;;;;;;19.10;62.80;;;;;;10191516;28;92891;-47
2023/10/25 18:10:48;;;;;;;;;;;19.00;62.80;;;;;;10238704;28;93404;-45
2023/10/25 18:15:50;;;;;;;;;;;18.90;62.90;;;;;;10242922;28;93772;-46
2023/10/25 18:20:54;;;;;;;;;;;18.80;63.10;;;;;;10238826;28;93798;-44
2023/10/25 18:25:55;;;;;;;;;;;18.80;63.20;;;;;;10239614;28;92873;-45
2023/10/25 18:30:59;;;;;;;;;;;18.90;63.20;;;;;;10222450;28;93201;-44
2023/10/25 18:36:20;;;;;;;;;;;19.10;63.00;;;;;;10239575;28;93001;-45
2023/10/25 18:41:22;;;;;;;;;;;19.10;62.80;;;;;;10210629;28;95475;-46
2023/10/25 18:46:24;;;;;;;;;;;19.10;62.70;;;;;;10216472;28;93676;-43
2023/10/25 18:51:26;;;;;;;;;;;19.10;62.70;;;;;;10213126;28;93956;-44
2023/10/25 18:56:29;;;;;;;;;;;19.10;62.70;;;;;;10228023;28;92841;-43
2023/10/25 19:01:31;;;;;;;;;;;19.20;62.70;;;;;;10219869;28;94716;-45
2023/10/25 19:06:32;;;;;;;;;;;19.30;62.50;;;;;;10235641;28;93014;-45
2023/10/25 19:11:42;;;;;;;;;;;19.40;62.30;;;;;;10214009;28;93519;-43
2023/10/25 19:16:47;;;;;;;;;;;19.40;62.20;;;;;;10220506;28;92862;-47
2023/10/25 19:21:49;;;;;;;;;;;19.40;62.20;;;;;;10222618;28;94995;-44
2023/10/25 19:26:52;;;;;;;;;;;19.30;62.30;;;;;;10222387;28;93068;-43
2023/10/25 19:31:54;;;;;;;;;;;19.30;62.40;;;;;;10222236;28;95579;-46
2023/10/25 19:36:58;;;;;;;;;;;19.20;62.60;;;;;;10224747;28;96133;-44
2023/10/25 19:42:00;;;;;;;;;;;19.10;62.70;;;;;;10235543;28;93699;-44
2023/10/25 19:47:02;;;;;;;;;;;19.10;63.00;;;;;;10244962;28;93111;-45
2023/10/25 19:52:05;;;;;;;;;;;19.00;63.30;;;;;;10249849;28;93013;-46
2023/10/25 19:57:07;;;;;;;;;;;18.90;63.40;;;;;;10243397;28;93831;-45
2023/10/25 20:02:13;;;;;;;;;;;18.80;63.50;;;;;;10247323;28;93794;-44
2023/10/25 20:07:15;;;;;;;;;;;18.80;64.70;;;;;;10247807;28;93838;-44
2023/10/25 20:12:17;;;;;;;;;;;18.70;64.00;;;;;;10239748;28;92763;-43
2023/10/25 20:17:19;;;;;;;;;;;18.60;63.90;;;;;;10248878;28;93311;-43
2023/10/25 20:22:21;;;;;;;;;;;18.60;64.10;;;;;;10246992;28;95621;-46
2023/10/25 20:27:23;;;;;;;;;;;18.50;64.10;;;;;;10245388;28;93961;-45
2023/10/25 20:32:27;;;;;;;;;;;18.50;64.20;;;;;;10226184;28;92721;-43
2023/10/25 20:37:30;;;;;;;;;;;18.40;64.10;;;;;;10228192;28;92633;-46
2023/10/25 20:42:33;;;;;;;;;;;18.40;64.20;;;;;;10248990;28;93821;-43
2023/10/25 20:47:34;;;;;;;;;;;18.40;64.20;;;;;;10247201;28;92655;-43
2023/10/25 20:52:36;;;;;;;;;;;18.40;64.20;;;;;;10238706;28;93830;-43
2023/10/25 20:57:38;;;;;;;;;;;18.30;64.10;;;;;;10214354;28;92760;-45
2023/10/25 21:02:40;;;;;;;;;;;18.30;64.10;;;;;;10222455;28;93583;-43
2023/10/25 21:07:41;;;;;;;;;;;18.30;64.10;;;;;;10244284;28;93357;-46
2023/10/25 21:12:43;;;;;;;;;;;18.30;64.10;;;;;;10258301;28;95609;-47
2023/10/25 21:17:45;;;;;;;;;;;18.30;64.10;;;;;;10223914;28;96473;-44
2023/10/25 21:22:47;;;;;;;;;;;18.30;64.00;;;;;;10245267;28;93013;-43
2023/10/25 21:27:49;;;;;;;;;;;18.20;63.90;;;;;;10209643;28;94215;-45
2023/10/25 21:32:51;;;;;;;;;;;18.20;63.90;;;;;;10245468;28;93030;-44
2023/10/25 21:37:53;;;;;;;;;;;18.20;63.90;;;;;;10244365;28;93826;-44
2023/10/25 21:42:55;;;;;;;;;;;18.10;63.90;;;;;;10244575;28;93035;-44
2023/10/25 21:47:58;;;;;;;;;;;18.10;63.90;;;;;;10245284;28;93004;-48
2023/10/25 21:53:00;;;;;;;;;;;18.10;63.90;;;;;;10244947;28;93023;-49
2023/10/25 21:58:02;;;;;;;;;;;18.10;63.90;;;;;;10234252;28;93783;-46
2023/10/25 22:03:24;;;;;;;;;;;18.10;64.00;;;;;;10235420;28;94899;-47
2023/10/25 22:08:27;;;;;;;;;;;18.00;63.90;;;;;;10222447;28;95207;-44
2023/10/25 22:13:29;;;;;;;;;;;18.00;63.90;;;;;;10221865;28;92790;-48
2023/10/25 22:18:30;;;;;;;;;;;18.00;64.00;;;;;;10234868;28;92595;-44
2023/10/25 22:23:32;;;;;;;;;;;18.00;64.00;;;;;;10214697;28;94243;-45
2023/10/25 22:28:34;;;;;;;;;;;17.90;64.00;;;;;;10227431;28;94040;-45
2023/10/25 22:33:36;;;;;;;;;;;17.90;64.00;;;;;;10234158;28;93524;-46
2023/10/25 22:38:38;;;;;;;;;;;17.90;64.00;;;;;;10243444;28;92714;-47
2023/10/25 22:43:40;;;;;;;;;;;17.90;64.00;;;;;;10243778;28;93094;-45
2023/10/25 22:48:41;;;;;;;;;;;17.80;63.90;;;;;;10239685;28;95435;-45
2023/10/25 22:53:43;;;;;;;;;;;17.80;63.90;;;;;;10222418;28;95005;-45
2023/10/25 22:58:45;;;;;;;;;;;17.80;63.90;;;;;;10232455;28;97553;-44
2023/10/25 23:03:47;;;;;;;;;;;17.80;63.90;;;;;;10243055;28;92740;-47
2023/10/25 23:08:49;;;;;;;;;;;17.80;63.90;;;;;;10236934;28;95030;-43
2023/10/25 23:13:51;;;;;;;;;;;17.80;63.90;;;;;;10238992;28;92956;-45
2023/10/25 23:18:56;;;;;;;;;;;17.80;63.90;;;;;;10247427;28;92814;-45
2023/10/25 23:23:58;;;;;;;;;;;17.70;63.90;;;;;;10247115;28;93141;-49
2023/10/25 23:29:00;;;;;;;;;;;17.70;63.90;;;;;;10246707;28;92957;-44
2023/10/25 23:34:02;;;;;;;;;;;17.70;63.90;;;;;;10221036;28;93149;-44
2023/10/25 23:39:04;;;;;;;;;;;17.70;63.90;;;;;;10245220;28;92764;-43
2023/10/25 23:44:06;;;;;;;;;;;17.70;63.90;;;;;;10244932;28;95597;-43
2023/10/25 23:49:08;;;;;;;;;;;17.70;63.90;;;;;;10220345;28;96636;-47
2023/10/25 23:54:10;;;;;;;;;;;17.70;63.90;;;;;;10226127;28;92837;-47
2023/10/25 23:59:31;;;;;;;;;;;17.60;63.90;;;;;;10240280;28;94466;-45
